createdAt,value
2018-12-04T00:00:10.486Z,9.20
2018-12-04T00:02:38.222Z,9.20
2018-12-04T00:05:05.914Z,9.10
2018-12-04T00:07:33.483Z,9.10
2018-12-04T00:10:01.018Z,9.20
2018-12-04T00:12:29.682Z,9.20
2018-12-04T00:14:57.292Z,9.20
2018-12-04T00:17:24.825Z,9.20
2018-12-04T00:19:52.406Z,9.20
2018-12-04T00:22:24.807Z,9.20
2018-12-04T00:24:52.333Z,9.20
2018-12-04T00:27:19.874Z,9.10
2018-12-04T00:29:47.449Z,9.10
2018-12-04T00:32:16.050Z,9.20
2018-12-04T00:34:43.627Z,9.20
2018-12-04T00:37:11.194Z,9.10
2018-12-04T00:39:38.794Z,9.20
2018-12-04T00:42:06.434Z,9.10
2018-12-04T00:44:33.974Z,9.10
2018-12-04T00:47:01.517Z,9.00
2018-12-04T00:49:29.123Z,9.00
2018-12-04T00:51:56.758Z,9.00
2018-12-04T00:54:24.339Z,9.10
2018-12-04T00:56:51.911Z,9.10
2018-12-04T00:59:19.450Z,9.00
2018-12-04T01:01:47.113Z,9.00
2018-12-04T01:04:14.625Z,8.90
2018-12-04T01:06:42.183Z,8.90
2018-12-04T01:09:10.266Z,8.90
2018-12-04T01:11:48.377Z,8.80
2018-12-04T01:14:15.959Z,8.80
2018-12-04T01:16:43.494Z,9.00
2018-12-04T01:19:11.150Z,8.90
2018-12-04T01:21:44.290Z,9.10
2018-12-04T01:24:11.899Z,9.20
2018-12-04T01:26:39.498Z,9.20
2018-12-04T01:29:07.027Z,9.30
2018-12-04T01:31:38.178Z,9.30
2018-12-04T01:34:05.690Z,9.30
2018-12-04T01:36:33.202Z,9.40
2018-12-04T01:39:00.725Z,9.50
2018-12-04T01:41:28.302Z,9.50
2018-12-04T01:43:55.845Z,9.50
2018-12-04T01:46:23.402Z,9.40
2018-12-04T01:48:50.966Z,9.50
2018-12-04T01:51:32.386Z,9.40
2018-12-04T01:53:59.910Z,9.50
2018-12-04T01:56:27.405Z,9.50
2018-12-04T01:58:54.926Z,9.50
2018-12-04T02:01:23.506Z,9.60
2018-12-04T02:03:51.029Z,9.60
2018-12-04T02:06:18.626Z,9.60
2018-12-04T02:08:46.175Z,9.70
2018-12-04T02:11:14.751Z,9.70
2018-12-04T02:13:42.265Z,9.60
2018-12-04T02:16:09.779Z,9.70
2018-12-04T02:18:37.299Z,9.60
2018-12-04T02:21:05.318Z,9.60
2018-12-04T02:23:32.354Z,9.60
2018-12-04T02:25:59.850Z,9.60
2018-12-04T02:28:32.858Z,9.60
2018-12-04T02:31:00.366Z,9.50
2018-12-04T02:33:27.913Z,9.50
2018-12-04T02:35:55.478Z,9.60
2018-12-04T02:38:23.002Z,9.60
2018-12-04T02:40:50.486Z,9.60
2018-12-04T02:43:31.186Z,9.60
2018-12-04T02:45:58.813Z,9.60
2018-12-04T02:48:26.453Z,9.60
2018-12-04T02:50:54.097Z,9.60
2018-12-04T02:53:21.834Z,9.60
2018-12-04T02:55:49.551Z,9.70
2018-12-04T02:58:17.163Z,9.70
2018-12-04T03:00:44.854Z,9.60
2018-12-04T03:03:15.722Z,9.60
2018-12-04T03:05:43.406Z,9.60
2018-12-04T03:08:11.107Z,9.50
2018-12-04T03:10:38.790Z,9.40
2018-12-04T03:13:10.839Z,9.40
2018-12-04T03:15:38.386Z,9.40
2018-12-04T03:18:05.941Z,9.40
2018-12-04T03:20:34.066Z,9.30
2018-12-04T03:23:07.049Z,9.30
2018-12-04T03:25:34.581Z,9.30
2018-12-04T03:28:02.270Z,9.30
2018-12-04T03:30:29.856Z,9.40
2018-12-04T03:33:04.664Z,9.30
2018-12-04T03:35:32.203Z,9.30
2018-12-04T03:37:59.753Z,9.90
2018-12-04T03:40:27.326Z,9.30
2018-12-04T03:43:00.453Z,9.30
2018-12-04T03:45:27.999Z,9.30
2018-12-04T03:47:55.502Z,9.30
2018-12-04T03:50:23.015Z,9.30
2018-12-04T03:52:55.095Z,9.20
2018-12-04T03:55:22.611Z,9.20
2018-12-04T03:57:50.138Z,9.10
2018-12-04T04:00:17.703Z,9.10
2018-12-04T04:02:47.298Z,9.10
2018-12-04T04:05:14.944Z,9.10
2018-12-04T04:07:42.458Z,9.10
2018-12-04T04:10:10.033Z,9.00
2018-12-04T04:12:40.862Z,9.10
2018-12-04T04:15:08.378Z,9.10
2018-12-04T04:17:35.893Z,9.10
2018-12-04T04:20:03.650Z,9.10
2018-12-04T04:22:31.228Z,9.10
2018-12-04T04:24:58.789Z,9.10
2018-12-04T04:27:26.308Z,9.00
2018-12-04T04:29:53.824Z,9.10
2018-12-04T04:32:21.437Z,9.10
2018-12-04T04:34:48.942Z,9.10
2018-12-04T04:37:16.470Z,9.10
2018-12-04T04:39:43.993Z,9.10
2018-12-04T04:42:13.544Z,9.10
2018-12-04T04:44:41.070Z,9.10
2018-12-04T04:47:08.602Z,9.10
2018-12-04T04:49:36.118Z,9.10
2018-12-04T04:52:04.851Z,9.10
2018-12-04T04:54:32.535Z,9.10
2018-12-04T04:57:00.206Z,9.10
2018-12-04T04:59:27.891Z,9.10
2018-12-04T05:01:57.603Z,9.10
2018-12-04T05:04:25.203Z,9.10
2018-12-04T05:06:52.884Z,9.10
2018-12-04T05:09:20.589Z,9.00
2018-12-04T05:11:48.295Z,9.00
2018-12-04T05:14:16.725Z,9.10
2018-12-04T05:16:44.351Z,9.20
2018-12-04T05:19:12.039Z,9.10
2018-12-04T05:21:45.041Z,9.10
2018-12-04T05:24:12.676Z,9.10
2018-12-04T05:26:40.364Z,9.10
2018-12-04T05:29:07.995Z,9.10
2018-12-04T05:31:40.132Z,9.10
2018-12-04T05:34:07.782Z,9.10
2018-12-04T05:36:35.291Z,9.20
2018-12-04T05:39:03.430Z,9.10
2018-12-04T05:41:38.369Z,9.20
2018-12-04T05:44:05.906Z,9.10
2018-12-04T05:46:33.417Z,9.10
2018-12-04T05:49:00.938Z,9.20
2018-12-04T05:51:41.579Z,9.20
2018-12-04T05:54:14.616Z,9.10
2018-12-04T05:56:42.478Z,9.00
2018-12-04T05:59:10.026Z,9.00
2018-12-04T06:01:37.651Z,9.00
2018-12-04T06:04:05.206Z,9.00
2018-12-04T06:06:32.718Z,8.90
2018-12-04T06:09:00.276Z,8.90
2018-12-04T06:13:56.110Z,8.80
2018-12-04T06:16:23.610Z,8.80
2018-12-04T06:18:51.138Z,8.80
2018-12-04T06:22:09.194Z,8.80
2018-12-04T06:24:44.360Z,8.70
2018-12-04T06:27:19.510Z,8.80
2018-12-04T06:29:54.538Z,8.80
2018-12-04T06:32:30.079Z,8.70
2018-12-04T06:35:06.166Z,8.60
2018-12-04T06:37:40.714Z,8.70
2018-12-04T06:40:16.078Z,8.70
2018-12-04T06:42:51.444Z,8.90
2018-12-04T06:45:26.802Z,8.70
2018-12-04T07:00:49.060Z,8.60
2018-12-04T07:03:25.469Z,8.50
2018-12-04T07:08:34.599Z,8.40
2018-12-04T07:11:10.697Z,8.40
2018-12-04T07:13:46.019Z,8.30
2018-12-04T07:16:21.374Z,8.40
2018-12-04T07:24:05.583Z,8.10
2018-12-04T07:34:23.398Z,7.80
2018-12-04T07:42:07.822Z,7.50
2018-12-04T07:44:38.960Z,7.60
2018-12-04T07:47:14.002Z,7.60
2018-12-04T07:49:48.430Z,7.40
2018-12-04T07:52:23.043Z,7.60
2018-12-04T07:54:58.490Z,7.70
2018-12-04T07:57:33.348Z,7.70
2018-12-04T08:00:08.642Z,7.70
2018-12-04T08:02:44.922Z,7.70
2018-12-04T08:05:20.067Z,7.90
2018-12-04T08:07:55.421Z,7.80
2018-12-04T08:10:30.562Z,7.80
2018-12-04T08:13:05.770Z,7.80
2018-12-04T08:15:41.107Z,7.80
2018-12-04T08:18:16.484Z,7.90
2018-12-04T08:20:51.439Z,7.80
2018-12-04T08:23:26.713Z,8.00
2018-12-04T08:26:01.887Z,7.90
2018-12-04T08:28:37.043Z,7.60
2018-12-04T08:31:12.485Z,7.80
2018-12-04T08:33:47.734Z,7.90
2018-12-04T08:36:22.861Z,7.90
2018-12-04T08:38:57.982Z,7.90
2018-12-04T08:41:34.318Z,7.90
2018-12-04T08:44:09.675Z,7.90
2018-12-04T08:46:44.987Z,7.90
2018-12-04T08:49:20.426Z,7.90
2018-12-04T08:51:57.545Z,7.90
2018-12-04T08:54:33.013Z,8.10
2018-12-04T08:57:07.458Z,8.20
2018-12-04T08:59:42.918Z,8.30
2018-12-04T09:02:18.279Z,8.30
2018-12-04T09:04:53.535Z,8.20
2018-12-04T09:07:28.058Z,8.20
2018-12-04T09:10:04.078Z,8.20
2018-12-04T09:12:39.223Z,8.20
2018-12-04T09:15:14.098Z,8.10
2018-12-04T09:17:49.434Z,8.20
2018-12-04T09:20:24.828Z,8.20
2018-12-04T09:23:00.095Z,8.20
2018-12-04T09:28:06.261Z,8.20
2018-12-04T09:33:14.643Z,8.30
2018-12-04T09:35:49.679Z,8.30
2018-12-04T09:38:24.966Z,8.40
2018-12-04T09:41:00.026Z,8.30
2018-12-04T09:43:35.370Z,8.30
2018-12-04T09:46:09.794Z,8.20
2018-12-04T09:48:45.035Z,8.20
2018-12-04T09:51:21.178Z,8.20
2018-12-04T09:53:56.427Z,8.30
2018-12-04T09:56:31.567Z,8.30
2018-12-04T09:59:06.829Z,8.50
2018-12-04T10:01:41.991Z,8.50
2018-12-04T10:04:16.807Z,8.40
2018-12-04T10:06:51.604Z,9.10
2018-12-04T10:09:26.643Z,8.60
2018-12-04T10:24:52.951Z,9.10
2018-12-04T10:27:28.279Z,9.10
2018-12-04T10:30:03.711Z,9.10
2018-12-04T10:32:38.235Z,9.60
2018-12-04T10:37:44.610Z,9.50
2018-12-04T10:40:19.738Z,9.60
2018-12-04T10:42:54.799Z,9.60
2018-12-04T10:48:04.227Z,9.50
2018-12-04T10:50:39.343Z,9.90
2018-12-04T10:53:14.458Z,9.40
2018-12-04T10:55:49.521Z,9.30
2018-12-04T10:58:24.560Z,9.40
2018-12-04T11:01:01.747Z,9.60
2018-12-04T11:03:37.303Z,9.40
2018-12-04T11:06:12.511Z,9.60
2018-12-04T11:08:47.811Z,9.50
2018-12-04T11:11:23.234Z,9.40
2018-12-04T11:13:54.179Z,9.40
2018-12-04T11:16:29.447Z,9.20
2018-12-04T11:21:34.836Z,9.10
2018-12-04T11:24:09.882Z,9.20
2018-12-04T11:26:45.247Z,9.00
2018-12-04T11:29:20.507Z,9.10
2018-12-04T11:31:56.082Z,9.20
2018-12-04T11:34:31.214Z,9.20
2018-12-04T11:37:06.366Z,9.20
2018-12-04T11:42:12.510Z,9.30
2018-12-04T11:57:32.824Z,8.90
2018-12-04T12:00:11.674Z,10.10
2018-12-04T12:02:46.414Z,9.60
2018-12-04T12:05:21.670Z,10.10
2018-12-04T12:07:57.027Z,9.80
2018-12-04T12:10:32.212Z,9.80
2018-12-04T12:15:43.447Z,9.80
2018-12-04T12:18:18.594Z,10.50
2018-12-04T12:20:53.822Z,9.90
2018-12-04T12:23:29.055Z,9.80
2018-12-04T12:26:04.390Z,9.90
2018-12-04T12:28:39.619Z,10.40
2018-12-04T12:31:15.682Z,10.40
2018-12-04T12:33:50.822Z,10.00
2018-12-04T12:36:25.963Z,10.00
2018-12-04T12:39:01.282Z,10.00
2018-12-04T12:41:36.443Z,9.90
2018-12-04T12:44:11.914Z,10.80
2018-12-04T12:46:46.967Z,10.00
2018-12-04T12:49:21.413Z,10.00
2018-12-04T12:51:56.466Z,9.90
2018-12-04T13:07:13.790Z,9.40
2018-12-04T13:09:48.651Z,9.50
2018-12-04T13:12:23.738Z,9.10
2018-12-04T13:14:54.809Z,9.60
2018-12-04T13:17:29.723Z,9.20
2018-12-04T13:20:05.566Z,9.20
2018-12-04T13:22:40.122Z,9.10
2018-12-04T13:25:10.961Z,9.50
2018-12-04T13:27:46.105Z,9.40
2018-12-04T13:30:21.269Z,9.30
2018-12-04T13:35:28.287Z,9.20
2018-12-04T13:40:34.914Z,11.70
2018-12-04T13:48:22.462Z,13.80
2018-12-04T13:50:57.746Z,14.00
2018-12-04T13:53:32.908Z,14.90
2018-12-04T13:56:08.217Z,15.90
2018-12-04T14:03:56.820Z,17.20
2018-12-04T14:06:31.870Z,16.70
2018-12-04T14:11:38.650Z,16.70
2018-12-04T14:14:13.960Z,17.20
2018-12-04T14:16:44.944Z,16.30
2018-12-04T14:19:16.056Z,14.90
2018-12-04T14:21:51.168Z,15.10
2018-12-04T14:24:26.098Z,15.60
2018-12-04T14:27:01.367Z,15.20
2018-12-04T14:29:36.632Z,14.80
2018-12-04T14:37:19.419Z,11.70
2018-12-04T14:52:49.922Z,8.50
2018-12-04T14:55:25.197Z,8.10
2018-12-04T14:58:00.537Z,8.10
2018-12-04T15:00:35.535Z,8.00
2018-12-04T15:03:10.400Z,7.80
2018-12-04T15:05:45.377Z,7.50
2018-12-04T15:08:20.240Z,7.40
2018-12-04T15:10:55.298Z,7.30
2018-12-04T15:23:36.558Z,6.60
2018-12-04T15:26:11.731Z,6.70
2018-12-04T15:28:46.878Z,6.50
2018-12-04T15:31:22.292Z,6.30
2018-12-04T15:33:57.692Z,6.20
2018-12-04T15:36:32.902Z,5.90
2018-12-04T15:39:08.109Z,5.80
2018-12-04T15:44:14.447Z,5.50
2018-12-04T15:46:49.632Z,5.10
2018-12-04T15:49:24.632Z,4.90
2018-12-04T15:51:59.923Z,5.10
2018-12-04T15:54:35.291Z,5.10
2018-12-04T15:57:10.523Z,4.90
2018-12-04T15:59:45.792Z,4.90
2018-12-04T16:02:20.883Z,5.00
2018-12-04T16:04:56.014Z,4.90
2018-12-04T16:07:33.376Z,4.90
2018-12-04T16:10:09.503Z,4.80
2018-12-04T16:15:20.259Z,4.50
2018-12-04T16:17:55.887Z,4.40
2018-12-04T16:20:30.834Z,4.40
2018-12-04T16:23:07.895Z,4.20
2018-12-04T16:25:43.099Z,4.30
2018-12-04T16:28:14.273Z,4.10
2018-12-04T16:30:49.415Z,4.00
2018-12-04T16:35:58.898Z,3.60
2018-12-04T16:38:34.311Z,3.60
2018-12-04T16:41:09.560Z,3.40
2018-12-04T16:43:44.926Z,3.30
2018-12-04T16:48:50.886Z,3.10
2018-12-04T16:53:57.287Z,3.00
2018-12-04T16:56:32.648Z,3.10
2018-12-04T16:59:07.828Z,3.00
2018-12-04T17:01:43.083Z,3.00
2018-12-04T17:04:18.330Z,3.10
2018-12-04T17:06:53.590Z,3.10
2018-12-04T17:09:28.055Z,3.10
2018-12-04T17:12:03.263Z,3.10
2018-12-04T17:14:38.419Z,3.00
2018-12-04T17:19:47.750Z,2.80
2018-12-04T17:22:22.991Z,2.70
2018-12-04T17:24:58.019Z,2.70
2018-12-04T17:27:28.854Z,2.30
2018-12-04T17:30:04.366Z,2.40
2018-12-04T17:32:39.942Z,2.30
2018-12-04T17:35:14.822Z,2.40
2018-12-04T17:37:49.786Z,2.40
2018-12-04T17:40:24.882Z,2.50
2018-12-04T17:43:00.192Z,2.50
2018-12-04T17:45:35.486Z,2.50
2018-12-04T17:48:10.514Z,2.50
2018-12-04T17:50:46.068Z,2.50
2018-12-04T17:53:21.191Z,2.50
2018-12-04T17:55:56.150Z,2.50
2018-12-04T17:58:27.211Z,2.40
2018-12-04T18:01:02.610Z,2.40
2018-12-04T18:03:37.847Z,2.40
2018-12-04T18:06:13.232Z,2.10
2018-12-04T18:16:28.879Z,2.10
2018-12-04T18:19:04.270Z,2.20
2018-12-04T18:57:38.503Z,1.30
2018-12-04T19:00:13.410Z,1.30
2018-12-04T19:02:48.247Z,1.30
2018-12-04T19:05:23.594Z,1.40
2018-12-04T19:07:58.663Z,1.40
2018-12-04T19:13:06.814Z,1.20
2018-12-04T19:33:47.643Z,1.10
2018-12-04T19:41:34.025Z,0.80
2018-12-04T19:44:09.215Z,0.80
2018-12-04T19:46:44.482Z,0.80
2018-12-04T19:49:19.646Z,0.80
2018-12-04T19:51:55.491Z,0.80
2018-12-04T19:54:31.167Z,0.80
2018-12-04T19:57:06.044Z,0.80
2018-12-04T19:59:41.128Z,0.70
2018-12-04T20:02:16.135Z,0.70
2018-12-04T20:04:51.172Z,0.70
2018-12-04T20:07:26.416Z,0.60
2018-12-04T20:10:01.669Z,0.70
2018-12-04T20:12:36.853Z,0.70
2018-12-04T20:15:12.200Z,0.50
2018-12-04T20:17:47.419Z,0.50
2018-12-04T20:20:18.415Z,0.60
2018-12-04T20:22:53.537Z,0.50
2018-12-04T20:28:04.851Z,0.30
2018-12-04T20:30:39.728Z,0.30
2018-12-04T20:33:15.060Z,0.20
2018-12-04T20:35:50.217Z,0.10
2018-12-04T20:38:25.137Z,0.20
2018-12-04T20:41:00.221Z,0.20
2018-12-04T20:43:35.180Z,0.20
2018-12-04T20:46:10.681Z,0.30
2018-12-04T20:48:45.935Z,0.20
2018-12-04T20:51:20.980Z,0.10
2018-12-04T20:56:31.452Z,0.00
2018-12-04T20:59:06.646Z,0.10
2018-12-04T21:01:42.682Z,0.10
2018-12-04T21:04:17.858Z,0.10
2018-12-04T21:06:52.472Z,0.10
2018-12-04T21:09:27.491Z,0.00
2018-12-04T21:12:02.724Z,-0.20
2018-12-04T21:14:37.982Z,-0.20
2018-12-04T21:17:12.548Z,-0.10
2018-12-04T21:22:23.156Z,-0.30
2018-12-04T21:24:58.034Z,-0.50
2018-12-04T21:27:34.441Z,-0.40
2018-12-04T21:30:15.704Z,-0.40
2018-12-04T21:32:56.413Z,-0.30
2018-12-04T21:35:37.422Z,-0.30
2018-12-04T21:38:18.410Z,-0.30
2018-12-04T21:41:05.952Z,-0.30
2018-12-04T21:43:46.359Z,-0.30
2018-12-04T21:46:27.385Z,-0.30
2018-12-04T21:49:02.806Z,-0.30
2018-12-04T21:51:37.662Z,-0.30
2018-12-04T21:54:13.141Z,-0.50
2018-12-04T21:56:48.486Z,-0.60
2018-12-04T21:59:23.740Z,-0.30
2018-12-04T22:01:59.999Z,-0.40
2018-12-04T22:04:34.859Z,-0.50
2018-12-04T22:07:10.042Z,-0.50
2018-12-04T22:09:45.079Z,-0.40
2018-12-04T22:12:20.407Z,-0.40
2018-12-04T22:14:55.707Z,-0.40
2018-12-04T22:17:31.072Z,-0.50
2018-12-04T22:20:06.518Z,-0.60
2018-12-04T22:22:41.867Z,-0.50
2018-12-04T22:25:17.011Z,-0.60
2018-12-04T22:27:52.083Z,-0.50
2018-12-04T22:30:27.047Z,-0.40
2018-12-04T22:32:59.142Z,-0.60
2018-12-04T22:35:34.081Z,-0.60
2018-12-04T22:40:43.390Z,-0.80
2018-12-04T22:43:19.586Z,-0.80
2018-12-04T22:45:54.614Z,-0.70
2018-12-04T22:48:25.667Z,-0.70
2018-12-04T22:51:00.819Z,-0.70
2018-12-04T22:53:35.358Z,-0.70
2018-12-04T22:56:06.823Z,-0.80
2018-12-04T22:58:42.076Z,-0.80
2018-12-04T23:01:29.134Z,-0.80
2018-12-04T23:04:05.390Z,-0.90
2018-12-04T23:06:40.235Z,-0.90
2018-12-04T23:09:15.575Z,-0.90
2018-12-04T23:11:51.927Z,-1.00
2018-12-04T23:14:27.178Z,-1.00
2018-12-04T23:17:02.173Z,-1.00
2018-12-04T23:19:37.516Z,-0.90
2018-12-04T23:22:12.570Z,-0.90
2018-12-04T23:24:47.790Z,-0.90
2018-12-04T23:27:23.170Z,-0.90
2018-12-04T23:29:54.103Z,-0.90
2018-12-04T23:32:29.190Z,-0.90
2018-12-04T23:35:04.543Z,-1.00
2018-12-04T23:37:39.615Z,-0.80
2018-12-04T23:40:10.630Z,-1.00
2018-12-04T23:42:46.818Z,-1.10
2018-12-04T23:45:21.756Z,-1.30
2018-12-04T23:47:57.058Z,-1.30
2018-12-04T23:50:28.394Z,-1.30
2018-12-04T23:53:03.368Z,-1.30
2018-12-04T23:55:38.639Z,-1.30
2018-12-04T23:58:13.474Z,-1.20
